sensor_id;sensor_type;location;lat;lon;timestamp;temperature;humidity
6752;DHT22;3413;47.680;9.166;2023-05-10T00:00:00;18.30;95.40
6752;DHT22;3413;47.680;9.166;2023-05-10T00:05:13;18.10;95.30
6752;DHT22;3413;47.680;9.166;2023-05-10T00:10:15;18.00;95.40
6752;DHT22;3413;47.680;9.166;2023-05-10T00:15:18;17.90;95.30
6752;DHT22;3413;47.680;9.166;2023-05-10T00:20:20;17.80;95.30
6752;DHT22;3413;47.680;9.166;2023-05-10T00:25:22;17.70;95.20
6752;DHT22;3413;47.680;9.166;2023-05-10T00:30:27;17.70;95.20
6752;DHT22;3413;47.680;9.166;2023-05-10T00:35:29;17.60;95.20
6752;DHT22;3413;47.680;9.166;2023-05-10T00:40:35;17.40;95.20
6752;DHT22;3413;47.680;9.166;2023-05-10T00:45:42;17.40;95.20
6752;DHT22;3413;47.680;9.166;2023-05-10T00:50:45;17.40;95.20
6752;DHT22;3413;47.680;9.166;2023-05-10T00:55:48;17.30;95.20
6752;DHT22;3413;47.680;9.166;2023-05-10T01:00:50;17.30;95.20
6752;DHT22;3413;47.680;9.166;2023-05-10T01:05:53;17.20;95.20
6752;DHT22;3413;47.680;9.166;2023-05-10T01:10:56;17.10;95.20
6752;DHT22;3413;47.680;9.166;2023-05-10T01:15:58;17.00;95.20
6752;DHT22;3413;47.680;9.166;2023-05-10T01:37:21;17.10;95.20
6752;DHT22;3413;47.680;9.166;2023-05-10T01:42:30;17.10;95.20
6752;DHT22;3413;47.680;9.166;2023-05-10T01:47:52;17.10;95.10
6752;DHT22;3413;47.680;9.166;2023-05-10T01:52:57;17.10;95.10
6752;DHT22;3413;47.680;9.166;2023-05-10T01:58:07;17.00;95.10
6752;DHT22;3413;47.680;9.166;2023-05-10T02:03:11;17.10;95.20
6752;DHT22;3413;47.680;9.166;2023-05-10T02:08:14;17.10;95.20
6752;DHT22;3413;47.680;9.166;2023-05-10T02:13:19;17.10;95.20
6752;DHT22;3413;47.680;9.166;2023-05-10T02:18:22;17.20;95.30
6752;DHT22;3413;47.680;9.166;2023-05-10T02:23:26;17.20;95.30
6752;DHT22;3413;47.680;9.166;2023-05-10T02:28:29;17.20;95.30
6752;DHT22;3413;47.680;9.166;2023-05-10T02:33:31;17.20;95.30
6752;DHT22;3413;47.680;9.166;2023-05-10T02:38:35;17.10;95.30
6752;DHT22;3413;47.680;9.166;2023-05-10T02:43:39;17.00;95.30
6752;DHT22;3413;47.680;9.166;2023-05-10T02:48:42;17.00;95.30
6752;DHT22;3413;47.680;9.166;2023-05-10T02:53:46;17.10;95.60
6752;DHT22;3413;47.680;9.166;2023-05-10T02:58:48;17.10;95.30
6752;DHT22;3413;47.680;9.166;2023-05-10T03:03:50;17.00;95.20
6752;DHT22;3413;47.680;9.166;2023-05-10T03:08:52;16.90;95.30
6752;DHT22;3413;47.680;9.166;2023-05-10T03:24:45;17.00;95.40
6752;DHT22;3413;47.680;9.166;2023-05-10T03:29:48;17.00;95.40
6752;DHT22;3413;47.680;9.166;2023-05-10T03:34:51;17.00;95.30
6752;DHT22;3413;47.680;9.166;2023-05-10T03:39:53;16.90;95.30
6752;DHT22;3413;47.680;9.166;2023-05-10T03:44:56;16.90;95.30
6752;DHT22;3413;47.680;9.166;2023-05-10T03:49:58;16.80;95.30
6752;DHT22;3413;47.680;9.166;2023-05-10T03:55:01;16.80;95.40
6752;DHT22;3413;47.680;9.166;2023-05-10T04:00:06;16.90;95.40
6752;DHT22;3413;47.680;9.166;2023-05-10T04:05:14;16.90;95.40
6752;DHT22;3413;47.680;9.166;2023-05-10T04:10:17;16.90;95.50
6752;DHT22;3413;47.680;9.166;2023-05-10T04:15:19;16.90;95.40
6752;DHT22;3413;47.680;9.166;2023-05-10T04:20:21;17.00;95.50
6752;DHT22;3413;47.680;9.166;2023-05-10T04:25:23;17.00;95.60
6752;DHT22;3413;47.680;9.166;2023-05-10T04:30:25;17.00;95.60
6752;DHT22;3413;47.680;9.166;2023-05-10T04:35:30;17.00;95.60
6752;DHT22;3413;47.680;9.166;2023-05-10T04:40:32;17.00;95.60
6752;DHT22;3413;47.680;9.166;2023-05-10T04:45:34;17.00;95.60
6752;DHT22;3413;47.680;9.166;2023-05-10T04:50:36;17.10;95.70
6752;DHT22;3413;47.680;9.166;2023-05-10T04:55:38;17.10;95.60
6752;DHT22;3413;47.680;9.166;2023-05-10T05:00:40;17.10;95.60
6752;DHT22;3413;47.680;9.166;2023-05-10T05:05:43;17.00;95.60
6752;DHT22;3413;47.680;9.166;2023-05-10T05:10:48;17.00;95.60
6752;DHT22;3413;47.680;9.166;2023-05-10T05:15:51;17.10;95.70
6752;DHT22;3413;47.680;9.166;2023-05-10T05:20:53;17.10;95.70
6752;DHT22;3413;47.680;9.166;2023-05-10T05:25:55;17.10;95.70
6752;DHT22;3413;47.680;9.166;2023-05-10T05:30:58;17.10;95.70
6752;DHT22;3413;47.680;9.166;2023-05-10T05:36:04;17.10;95.70
6752;DHT22;3413;47.680;9.166;2023-05-10T05:41:06;17.10;95.70
6752;DHT22;3413;47.680;9.166;2023-05-10T05:46:08;17.10;95.70
6752;DHT22;3413;47.680;9.166;2023-05-10T05:51:13;17.10;95.70
6752;DHT22;3413;47.680;9.166;2023-05-10T05:56:15;17.10;95.70
6752;DHT22;3413;47.680;9.166;2023-05-10T06:01:19;17.10;95.70
6752;DHT22;3413;47.680;9.166;2023-05-10T06:06:21;17.20;95.80
6752;DHT22;3413;47.680;9.166;2023-05-10T06:11:23;17.20;95.80
6752;DHT22;3413;47.680;9.166;2023-05-10T06:16:25;17.30;95.80
6752;DHT22;3413;47.680;9.166;2023-05-10T06:21:27;17.20;95.80
6752;DHT22;3413;47.680;9.166;2023-05-10T06:26:29;17.20;95.80
6752;DHT22;3413;47.680;9.166;2023-05-10T06:31:31;17.20;95.80
6752;DHT22;3413;47.680;9.166;2023-05-10T06:36:33;17.30;95.90
6752;DHT22;3413;47.680;9.166;2023-05-10T06:41:35;17.30;95.90
6752;DHT22;3413;47.680;9.166;2023-05-10T06:46:37;17.40;95.90
6752;DHT22;3413;47.680;9.166;2023-05-10T06:51:39;17.40;96.00
6752;DHT22;3413;47.680;9.166;2023-05-10T06:56:41;17.50;96.00
6752;DHT22;3413;47.680;9.166;2023-05-10T07:01:43;17.40;95.90
6752;DHT22;3413;47.680;9.166;2023-05-10T07:06:45;17.40;95.90
6752;DHT22;3413;47.680;9.166;2023-05-10T07:11:48;17.40;95.90
6752;DHT22;3413;47.680;9.166;2023-05-10T07:16:49;17.30;95.90
6752;DHT22;3413;47.680;9.166;2023-05-10T07:21:51;17.30;95.90
6752;DHT22;3413;47.680;9.166;2023-05-10T07:26:53;17.40;95.90
6752;DHT22;3413;47.680;9.166;2023-05-10T07:31:55;17.40;96.00
6752;DHT22;3413;47.680;9.166;2023-05-10T07:36:59;17.40;95.90
6752;DHT22;3413;47.680;9.166;2023-05-10T07:42:02;17.50;95.90
6752;DHT22;3413;47.680;9.166;2023-05-10T07:47:04;17.50;95.90
6752;DHT22;3413;47.680;9.166;2023-05-10T07:52:06;17.60;95.90
6752;DHT22;3413;47.680;9.166;2023-05-10T07:57:08;17.50;95.80
6752;DHT22;3413;47.680;9.166;2023-05-10T08:02:10;17.50;95.90
6752;DHT22;3413;47.680;9.166;2023-05-10T08:07:11;17.60;95.90
6752;DHT22;3413;47.680;9.166;2023-05-10T08:12:13;17.50;95.80
6752;DHT22;3413;47.680;9.166;2023-05-10T08:17:15;17.50;95.80
6752;DHT22;3413;47.680;9.166;2023-05-10T08:22:21;17.60;95.80
6752;DHT22;3413;47.680;9.166;2023-05-10T08:27:23;17.70;95.80
6752;DHT22;3413;47.680;9.166;2023-05-10T08:32:24;17.60;95.70
6752;DHT22;3413;47.680;9.166;2023-05-10T08:37:29;17.60;95.70
6752;DHT22;3413;47.680;9.166;2023-05-10T08:42:34;17.50;95.70
6752;DHT22;3413;47.680;9.166;2023-05-10T08:47:37;17.60;95.80
6752;DHT22;3413;47.680;9.166;2023-05-10T08:52:41;17.60;95.70
6752;DHT22;3413;47.680;9.166;2023-05-10T08:57:43;17.60;95.70
6752;DHT22;3413;47.680;9.166;2023-05-10T09:02:45;17.70;95.70
6752;DHT22;3413;47.680;9.166;2023-05-10T09:07:49;17.70;95.60
6752;DHT22;3413;47.680;9.166;2023-05-10T09:12:51;17.60;95.60
6752;DHT22;3413;47.680;9.166;2023-05-10T09:17:54;17.70;95.80
6752;DHT22;3413;47.680;9.166;2023-05-10T09:22:57;17.80;96.10
6752;DHT22;3413;47.680;9.166;2023-05-10T09:27:59;17.80;95.90
6752;DHT22;3413;47.680;9.166;2023-05-10T09:33:01;17.90;95.90
6752;DHT22;3413;47.680;9.166;2023-05-10T09:38:04;18.00;95.80
6752;DHT22;3413;47.680;9.166;2023-05-10T09:43:07;18.00;95.80
6752;DHT22;3413;47.680;9.166;2023-05-10T09:48:10;18.00;95.80
6752;DHT22;3413;47.680;9.166;2023-05-10T09:53:14;18.00;95.70
6752;DHT22;3413;47.680;9.166;2023-05-10T09:58:17;18.20;95.90
6752;DHT22;3413;47.680;9.166;2023-05-10T10:03:20;18.30;95.90
6752;DHT22;3413;47.680;9.166;2023-05-10T10:08:22;18.60;95.90
6752;DHT22;3413;47.680;9.166;2023-05-10T10:13:24;18.80;95.80
6752;DHT22;3413;47.680;9.166;2023-05-10T10:18:26;18.70;95.80
6752;DHT22;3413;47.680;9.166;2023-05-10T10:23:30;18.90;95.80
6752;DHT22;3413;47.680;9.166;2023-05-10T10:28:51;19.00;95.80
6752;DHT22;3413;47.680;9.166;2023-05-10T10:34:17;19.10;95.80
6752;DHT22;3413;47.680;9.166;2023-05-10T10:39:21;19.30;95.90
6752;DHT22;3413;47.680;9.166;2023-05-10T10:49:33;19.50;95.90
6752;DHT22;3413;47.680;9.166;2023-05-10T10:54:35;19.60;95.90
6752;DHT22;3413;47.680;9.166;2023-05-10T10:59:41;19.70;95.90
6752;DHT22;3413;47.680;9.166;2023-05-10T11:04:44;19.70;95.90
6752;DHT22;3413;47.680;9.166;2023-05-10T11:09:48;19.80;95.90
6752;DHT22;3413;47.680;9.166;2023-05-10T11:14:50;19.80;95.70
6752;DHT22;3413;47.680;9.166;2023-05-10T11:20:06;19.70;95.70
6752;DHT22;3413;47.680;9.166;2023-05-10T11:25:09;19.70;95.50
6752;DHT22;3413;47.680;9.166;2023-05-10T11:30:12;19.50;95.40
6752;DHT22;3413;47.680;9.166;2023-05-10T11:35:14;19.30;95.20
6752;DHT22;3413;47.680;9.166;2023-05-10T11:40:16;19.30;95.20
6752;DHT22;3413;47.680;9.166;2023-05-10T11:45:18;19.30;95.10
6752;DHT22;3413;47.680;9.166;2023-05-10T11:50:20;19.20;95.00
6752;DHT22;3413;47.680;9.166;2023-05-10T11:55:23;19.20;95.00
6752;DHT22;3413;47.680;9.166;2023-05-10T12:00:26;19.20;95.00
6752;DHT22;3413;47.680;9.166;2023-05-10T12:05:28;19.20;94.80
6752;DHT22;3413;47.680;9.166;2023-05-10T12:10:34;19.20;94.90
6752;DHT22;3413;47.680;9.166;2023-05-10T12:15:36;19.20;94.80
6752;DHT22;3413;47.680;9.166;2023-05-10T12:20:38;19.30;94.70
6752;DHT22;3413;47.680;9.166;2023-05-10T12:25:41;19.20;94.60
6752;DHT22;3413;47.680;9.166;2023-05-10T12:30:43;19.30;94.60
6752;DHT22;3413;47.680;9.166;2023-05-10T12:35:51;19.30;94.60
6752;DHT22;3413;47.680;9.166;2023-05-10T12:40:55;19.40;94.50
6752;DHT22;3413;47.680;9.166;2023-05-10T12:45:58;19.50;94.50
6752;DHT22;3413;47.680;9.166;2023-05-10T12:51:01;19.60;94.30
6752;DHT22;3413;47.680;9.166;2023-05-10T12:56:04;19.50;94.20
6752;DHT22;3413;47.680;9.166;2023-05-10T13:01:06;19.50;94.10
6752;DHT22;3413;47.680;9.166;2023-05-10T13:06:08;19.50;94.00
6752;DHT22;3413;47.680;9.166;2023-05-10T13:11:10;19.50;94.00
6752;DHT22;3413;47.680;9.166;2023-05-10T13:16:12;19.60;94.00
6752;DHT22;3413;47.680;9.166;2023-05-10T13:21:14;19.70;94.00
6752;DHT22;3413;47.680;9.166;2023-05-10T13:26:16;19.80;93.90
6752;DHT22;3413;47.680;9.166;2023-05-10T13:31:18;19.80;93.90
6752;DHT22;3413;47.680;9.166;2023-05-10T13:36:20;19.80;94.00
6752;DHT22;3413;47.680;9.166;2023-05-10T13:41:23;19.90;93.90
6752;DHT22;3413;47.680;9.166;2023-05-10T13:46:24;20.00;93.90
6752;DHT22;3413;47.680;9.166;2023-05-10T13:51:27;20.00;93.80
6752;DHT22;3413;47.680;9.166;2023-05-10T13:56:29;20.00;93.70
6752;DHT22;3413;47.680;9.166;2023-05-10T14:01:31;20.00;93.70
6752;DHT22;3413;47.680;9.166;2023-05-10T14:06:33;19.90;93.50
6752;DHT22;3413;47.680;9.166;2023-05-10T14:11:35;19.90;93.60
6752;DHT22;3413;47.680;9.166;2023-05-10T14:16:37;20.00;93.50
6752;DHT22;3413;47.680;9.166;2023-05-10T14:21:39;20.00;93.50
6752;DHT22;3413;47.680;9.166;2023-05-10T14:26:42;20.00;93.40
6752;DHT22;3413;47.680;9.166;2023-05-10T14:31:44;20.00;93.50
6752;DHT22;3413;47.680;9.166;2023-05-10T14:36:47;20.00;93.40
6752;DHT22;3413;47.680;9.166;2023-05-10T14:41:49;20.00;93.40
6752;DHT22;3413;47.680;9.166;2023-05-10T14:46:53;20.00;93.40
6752;DHT22;3413;47.680;9.166;2023-05-10T14:51:54;20.10;93.40
6752;DHT22;3413;47.680;9.166;2023-05-10T14:56:56;20.10;93.30
6752;DHT22;3413;47.680;9.166;2023-05-10T15:01:59;20.10;93.30
6752;DHT22;3413;47.680;9.166;2023-05-10T15:07:01;20.00;93.30
6752;DHT22;3413;47.680;9.166;2023-05-10T15:12:03;20.00;93.20
6752;DHT22;3413;47.680;9.166;2023-05-10T15:17:06;19.90;93.20
6752;DHT22;3413;47.680;9.166;2023-05-10T15:22:10;20.00;93.20
6752;DHT22;3413;47.680;9.166;2023-05-10T15:27:12;20.00;93.10
6752;DHT22;3413;47.680;9.166;2023-05-10T15:32:14;19.90;93.10
6752;DHT22;3413;47.680;9.166;2023-05-10T15:37:16;19.80;93.00
6752;DHT22;3413;47.680;9.166;2023-05-10T15:42:17;19.70;93.00
6752;DHT22;3413;47.680;9.166;2023-05-10T15:47:20;19.70;92.90
6752;DHT22;3413;47.680;9.166;2023-05-10T15:52:22;19.70;92.90
6752;DHT22;3413;47.680;9.166;2023-05-10T15:57:24;19.70;93.00
6752;DHT22;3413;47.680;9.166;2023-05-10T16:02:26;19.80;93.00
6752;DHT22;3413;47.680;9.166;2023-05-10T16:07:29;19.80;92.90
6752;DHT22;3413;47.680;9.166;2023-05-10T16:12:31;19.80;92.90
6752;DHT22;3413;47.680;9.166;2023-05-10T16:17:33;19.80;93.00
6752;DHT22;3413;47.680;9.166;2023-05-10T16:22:35;19.60;92.90
6752;DHT22;3413;47.680;9.166;2023-05-10T16:27:37;19.50;93.00
6752;DHT22;3413;47.680;9.166;2023-05-10T16:32:39;19.30;92.90
6752;DHT22;3413;47.680;9.166;2023-05-10T16:37:41;19.30;93.00
6752;DHT22;3413;47.680;9.166;2023-05-10T16:42:43;19.20;93.00
6752;DHT22;3413;47.680;9.166;2023-05-10T16:47:45;19.20;92.90
6752;DHT22;3413;47.680;9.166;2023-05-10T16:52:47;19.30;92.90
6752;DHT22;3413;47.680;9.166;2023-05-10T16:57:49;19.20;92.90
6752;DHT22;3413;47.680;9.166;2023-05-10T17:02:51;19.10;92.90
6752;DHT22;3413;47.680;9.166;2023-05-10T17:07:55;19.10;93.00
6752;DHT22;3413;47.680;9.166;2023-05-10T17:12:57;19.10;92.90
6752;DHT22;3413;47.680;9.166;2023-05-10T17:17:59;19.10;92.90
6752;DHT22;3413;47.680;9.166;2023-05-10T17:23:01;19.10;93.00
6752;DHT22;3413;47.680;9.166;2023-05-10T17:28:04;19.10;92.90
6752;DHT22;3413;47.680;9.166;2023-05-10T17:33:06;19.10;92.90
6752;DHT22;3413;47.680;9.166;2023-05-10T17:38:08;19.10;92.90
6752;DHT22;3413;47.680;9.166;2023-05-10T17:43:10;18.80;92.90
6752;DHT22;3413;47.680;9.166;2023-05-10T17:48:12;18.80;93.00
6752;DHT22;3413;47.680;9.166;2023-05-10T17:53:14;18.60;92.80
6752;DHT22;3413;47.680;9.166;2023-05-10T17:58:16;18.60;92.80
6752;DHT22;3413;47.680;9.166;2023-05-10T18:03:18;18.50;92.80
6752;DHT22;3413;47.680;9.166;2023-05-10T18:08:20;18.30;92.70
6752;DHT22;3413;47.680;9.166;2023-05-10T18:13:23;18.20;92.60
6752;DHT22;3413;47.680;9.166;2023-05-10T18:18:26;18.20;92.60
6752;DHT22;3413;47.680;9.166;2023-05-10T18:23:28;18.10;92.60
6752;DHT22;3413;47.680;9.166;2023-05-10T18:28:30;18.10;92.60
6752;DHT22;3413;47.680;9.166;2023-05-10T18:33:32;18.10;92.60
6752;DHT22;3413;47.680;9.166;2023-05-10T18:38:33;18.00;92.50
6752;DHT22;3413;47.680;9.166;2023-05-10T18:43:35;17.90;92.50
6752;DHT22;3413;47.680;9.166;2023-05-10T18:48:37;17.70;92.50
6752;DHT22;3413;47.680;9.166;2023-05-10T18:53:39;17.50;92.30
6752;DHT22;3413;47.680;9.166;2023-05-10T18:58:41;17.10;92.30
6752;DHT22;3413;47.680;9.166;2023-05-10T19:03:45;16.90;92.20
6752;DHT22;3413;47.680;9.166;2023-05-10T19:08:47;16.70;92.30
6752;DHT22;3413;47.680;9.166;2023-05-10T19:13:49;16.70;92.30
6752;DHT22;3413;47.680;9.166;2023-05-10T19:18:51;16.70;92.40
6752;DHT22;3413;47.680;9.166;2023-05-10T19:23:53;16.80;92.40
6752;DHT22;3413;47.680;9.166;2023-05-10T19:28:56;16.90;92.50
6752;DHT22;3413;47.680;9.166;2023-05-10T19:33:58;17.10;92.60
6752;DHT22;3413;47.680;9.166;2023-05-10T19:39:01;17.20;92.70
6752;DHT22;3413;47.680;9.166;2023-05-10T19:44:03;17.30;92.80
6752;DHT22;3413;47.680;9.166;2023-05-10T19:49:05;17.30;92.70
6752;DHT22;3413;47.680;9.166;2023-05-10T19:54:07;17.10;92.80
6752;DHT22;3413;47.680;9.166;2023-05-10T19:59:09;17.00;92.70
6752;DHT22;3413;47.680;9.166;2023-05-10T20:04:11;16.90;92.70
6752;DHT22;3413;47.680;9.166;2023-05-10T20:09:16;16.80;92.60
6752;DHT22;3413;47.680;9.166;2023-05-10T20:14:20;16.70;92.60
6752;DHT22;3413;47.680;9.166;2023-05-10T20:19:22;16.60;92.60
6752;DHT22;3413;47.680;9.166;2023-05-10T20:24:24;16.60;92.50
6752;DHT22;3413;47.680;9.166;2023-05-10T20:29:26;16.50;92.60
6752;DHT22;3413;47.680;9.166;2023-05-10T20:34:28;16.50;92.60
6752;DHT22;3413;47.680;9.166;2023-05-10T20:39:30;16.50;92.70
6752;DHT22;3413;47.680;9.166;2023-05-10T20:44:32;16.50;92.60
6752;DHT22;3413;47.680;9.166;2023-05-10T20:49:34;16.50;92.60
6752;DHT22;3413;47.680;9.166;2023-05-10T20:54:38;16.50;92.70
6752;DHT22;3413;47.680;9.166;2023-05-10T20:59:40;16.50;92.60
6752;DHT22;3413;47.680;9.166;2023-05-10T21:04:42;16.60;92.60
6752;DHT22;3413;47.680;9.166;2023-05-10T21:09:44;16.50;92.60
6752;DHT22;3413;47.680;9.166;2023-05-10T21:14:46;16.50;92.50
6752;DHT22;3413;47.680;9.166;2023-05-10T21:19:48;16.50;92.60
6752;DHT22;3413;47.680;9.166;2023-05-10T21:24:50;16.50;92.70
6752;DHT22;3413;47.680;9.166;2023-05-10T21:29:52;16.50;92.70
6752;DHT22;3413;47.680;9.166;2023-05-10T21:34:54;16.50;92.80
6752;DHT22;3413;47.680;9.166;2023-05-10T21:39:56;16.60;92.70
6752;DHT22;3413;47.680;9.166;2023-05-10T21:44:58;16.60;92.70
6752;DHT22;3413;47.680;9.166;2023-05-10T21:50:00;16.60;92.70
6752;DHT22;3413;47.680;9.166;2023-05-10T21:55:02;16.50;92.60
6752;DHT22;3413;47.680;9.166;2023-05-10T22:00:05;16.50;92.70
6752;DHT22;3413;47.680;9.166;2023-05-10T22:05:09;16.40;92.60
6752;DHT22;3413;47.680;9.166;2023-05-10T22:10:11;16.30;92.60
6752;DHT22;3413;47.680;9.166;2023-05-10T22:15:13;16.30;92.60
6752;DHT22;3413;47.680;9.166;2023-05-10T22:20:15;16.30;92.50
6752;DHT22;3413;47.680;9.166;2023-05-10T22:25:19;16.20;92.60
6752;DHT22;3413;47.680;9.166;2023-05-10T22:30:21;16.20;92.60
6752;DHT22;3413;47.680;9.166;2023-05-10T22:35:23;16.20;92.90
6752;DHT22;3413;47.680;9.166;2023-05-10T22:40:25;16.10;92.60
6752;DHT22;3413;47.680;9.166;2023-05-10T22:45:27;16.00;92.60
6752;DHT22;3413;47.680;9.166;2023-05-10T22:50:30;15.80;92.60
6752;DHT22;3413;47.680;9.166;2023-05-10T22:55:32;15.80;92.60
6752;DHT22;3413;47.680;9.166;2023-05-10T23:00:34;15.80;92.50
6752;DHT22;3413;47.680;9.166;2023-05-10T23:05:36;15.70;92.60
6752;DHT22;3413;47.680;9.166;2023-05-10T23:10:38;15.80;92.60
6752;DHT22;3413;47.680;9.166;2023-05-10T23:15:40;15.70;92.60
6752;DHT22;3413;47.680;9.166;2023-05-10T23:20:44;15.70;92.60
6752;DHT22;3413;47.680;9.166;2023-05-10T23:25:46;15.80;92.60
6752;DHT22;3413;47.680;9.166;2023-05-10T23:31:02;15.70;92.80
6752;DHT22;3413;47.680;9.166;2023-05-10T23:36:04;15.60;92.60
6752;DHT22;3413;47.680;9.166;2023-05-10T23:41:06;15.60;92.60
6752;DHT22;3413;47.680;9.166;2023-05-10T23:46:08;15.50;92.50
6752;DHT22;3413;47.680;9.166;2023-05-10T23:51:12;15.50;92.50
6752;DHT22;3413;47.680;9.166;2023-05-10T23:56:17;15.40;92.50
